Tallassee, Tennessee
Current Conditions -  °F | °C
As of 9:53 PM on Friday 21 Nov 2014 (Local Time) from KTYS Reporting Station
Few Clouds Few Clouds  
Wind Chill: 34°   Ceiling: Unl
Heat Index: 34°   Visibility: 10mi
Dew Point: 19°   Wind: 3mph
Humidity: 54%   Direction: 60°ENE
Pressure: 30.42"   Gusts: NA
Location:  35.55°N, 84.06°W
Report Text: KTYS 220253Z 06003KT 10SM FEW250 01/M07 A3042 RMK AO2 SLP307 T00111072 50003
Loading
Personal Weather Stations






























Interactive Weather Map New forecast layout! Learn more

10-Day Weather Forecast

Advertisements
Track Severe Weather on mobile